Terminal Aerodrome Forecast
Issued by NWS

Home | Current Version | Previous Version | Text Only | Print | Product List | Glossary On
Versions: 1 2 3 4 5 6 7 8 9 10 11 12 13 14 15 16
000
FTUS43 KSGF 291700
TAFBBG
TAF
KBBG 291734Z 2918/3018 33011G20KT P6SM OVC015
     FM291930 33011G20KT P6SM OVC020
     FM292200 33011G20KT P6SM OVC030
      TEMPO 2923/3003 OVC035
     FM300300 VRB03KT P6SM SCT035
     FM301500 03005KT P6SM SKC=

USA.gov is the U.S. government's official web portal to all federal, state and local government web resources and services.